logo tempoitalia

Diretta Meteo Las Vegas North, Stati Uniti (USA)domenica 30 agosto ore 22:53

Mappa
Sereno 31 °C Sereno 24 Ore: T.min 31 T.max 37
Ponente Nord Km/h 0 Punto di rugiada: 4 °C Umidità: 18% Visibilità: 10 Km
Il sole sorge alle: 06:11 Il sole tramonta alle: 19:11
30 Agosto 2026 22:53 tempo osservato: Sereno Sereno 31 18 1010 vento: Nord N 0
30 Agosto 2026 21:53 tempo osservato: Sereno Sereno 31 18 1010 vento: Nord N 5.5
30 Agosto 2026 20:53 tempo osservato: Sereno Sereno 33 16 1009 vento: Nord SO 7.4
30 Agosto 2026 19:53 tempo osservato: Sereno Sereno 34 14 1008 vento: Nord O 11.1
30 Agosto 2026 18:53 tempo osservato: Sereno Sereno 35 14 1008 vento: Nord O/SO 18.5
30 Agosto 2026 17:53 tempo osservato: Sereno Sereno 36 13 1008 vento: Nord O/SO 16.7
30 Agosto 2026 16:53 tempo osservato: Sereno Sereno 36 13 1009 vento: Nord O 22.2
30 Agosto 2026 15:53 tempo osservato: Sereno Sereno 36 13 1009 vento: Nord O/SO 22.2
30 Agosto 2026 14:53 tempo osservato: Sereno Sereno 37 13 1010 vento: Nord O 25.9
30 Agosto 2026 14:11 tempo osservato: Sereno Sereno 36 13 1010 vento: Nord O 25.9
30 Agosto 2026 13:53 tempo osservato: Sereno Sereno 37 13 1010 vento: Nord S/SO 31.5
30 Agosto 2026 12:53 tempo osservato: Sereno Sereno 35 14 1011 vento: Nord S 25.9
30 Agosto 2026 11:53 tempo osservato: Sereno Sereno 35 14 1011 vento: Nord S/SO 22.2
30 Agosto 2026 10:53 tempo osservato: Sereno Sereno 35 14 1011 vento: Nord S 18.5
30 Agosto 2026 09:53 tempo osservato: Sereno Sereno 32 17 1011 vento: Nord S/SE 20.3
30 Agosto 2026 08:53 tempo osservato: Sereno Sereno 32 17 1011 vento: Nord S 24
30 Agosto 2026 07:53 tempo osservato: Sereno Sereno 32 18 1011 vento: Nord S/SO 29.6
30 Agosto 2026 06:53 tempo osservato: Sereno Sereno 31 20 1010 vento: Nord S 22.2
30 Agosto 2026 05:53 tempo osservato: Sereno Sereno 31 22 1009 vento: Nord S/SE 29.6
30 Agosto 2026 04:53 tempo osservato: Sereno Sereno 31 23 1009 vento: Nord SE 25.9
30 Agosto 2026 03:53 tempo osservato: Sereno Sereno 31 22 1009 vento: Nord S/SE 22.2
30 Agosto 2026 02:53 tempo osservato: Sereno Sereno 33 16 1008 vento: Nord O/SO 31.5
30 Agosto 2026 01:53 tempo osservato: Sereno Sereno 33 17 1008 vento: Nord O/SO 27.8
30 Agosto 2026 00:53 tempo osservato: Sereno Sereno 33 18 1008 vento: Nord O/SO 35.2
29 Agosto 2026 23:53 tempo osservato: Sereno Sereno 34 18 1008 vento: Nord O/SO 37